GW4215 Weather Reports


time (UTC)temp
F
wind
direction
speed
knots
gust
knots
rain 1hr
in
rain 24hr
in
rain mn
in
humidity
%
barometer
mb
20260506201504 57 230 0.9 1.7 0.01 0.08 0.08 92 1008.0
20260506200504 57 193 0.9 4.3 0.01 0.07 0.07 92 1007.8
20260506200005 57 212 1.7 4.3 0.01 0.07 0.07 92 1008.0
20260506195505 57 217 0.9 2.6 0.01 0.07 0.07 92 1008.1
20260506195005 57 215 2.6 4.3 0.01 0.07 0.07 91 1008.3
20260506194005 57 226 1.7 8.7 0.01 0.07 0.07 91 1008.2
20260506193504 57 236 4.3 10.4 0.01 0.07 0.07 91 1008.4
20260506193004 58 199 1.7 7.8 0.01 0.07 0.07 91 1008.4
20260506192504 58 214 2.6 6.1 0.02 0.07 0.07 92 1008.4
20260506192005 57 200 1.7 7.0 0.02 0.07 0.07 92 1008.4
20260506191504 57 206 1.7 7.0 0.03 0.07 0.07 91 1008.5
20260506191004 58 201 2.6 8.7 0.02 0.06 0.06 92 1008.7
20260506190504 58 231 1.7 10.4 0.02 0.06 0.06 91 1008.8
20260506190005 58 238 1.7 8.7 0.02 0.06 0.06 92 1008.9
20260506185504 58 204 0.9 7.0 0.02 0.06 0.06 92 1008.8
20260506185005 57 227 1.7 7.8 0.03 0.06 0.06 92 1008.8
20260506184505 57 193 1.7 6.1 0.03 0.06 0.06 91 1008.8
20260506184005 57 224 1.7 5.2 0.04 0.06 0.06 91 1009.1
20260506183505 57 226 2.6 5.2 0.04 0.06 0.06 91 1008.9
20260506183006 56 231 0.9 5.2 0.05 0.06 0.06 91 1009.0
20260506182504 56 239 0.9 5.2 0.04 0.05 0.05 90 1009.1
20260506182005 57 243 1.7 7.0 0.05 0.05 0.05 90 1009.1
20260506181005 57 207 2.6 7.8 0.04 0.04 0.04 90 1009.1
20260506180505 57 178 2.6 7.8 0.04 0.04 0.04 90 1009.1
20260506180005 58 177 1.7 5.2 0.04 0.04 0.04 90 1009.1
20260506175004 57 185 1.7 4.3 0.03 0.03 0.03 90 1009.3
20260506174505 57 212 1.7 4.3 0.03 0.03 0.03 89 1009.6
20260506174005 57 202 1.7 5.2 0.02 0.02 0.02 89 1009.8
20260506173505 58 197 2.6 6.1 0.02 0.02 0.02 88 1009.8
20260506173005 58 226 0.9 2.6 0.01 0.01 0.01 88 1010.0
20260506171505 58 208 2.6 5.2 0.00 0.00 0.00 86 1010.1
20260506171005 59 219 1.7 5.2 0.00 0.00 0.00 85 1010.1
20260506170504 59 259 1.7 6.1 0.00 0.00 0.00 84 1010.3
20260506165505 60 246 2.6 6.1 0.00 0.00 0.00 83 1010.4
20260506165004 60 239 0.9 6.1 0.00 0.00 0.00 82 1010.4
20260506164504 60 232 1.7 7.0 0.00 0.00 0.00 81 1010.4
20260506164004 60 228 1.7 7.0 0.00 0.00 0.00 81 1010.5
20260506163505 60 199 1.7 6.1 0.00 0.00 0.00 82 1010.5
20260506163005 60 251 2.6 5.2 0.00 0.00 0.00 82 1010.5
20260506162505 60 231 1.7 2.6 0.00 0.00 0.00 82 1010.5
20260506162005 60 222 2.6 6.1 0.00 0.00 0.00 82 1010.5
20260506161004 60 210 2.6 7.0 0.00 0.00 0.00 82 1010.6
20260506160505 60 217 2.6 7.0 0.00 0.00 0.00 81 1010.7
20260506155504 61 230 3.5 7.8 0.00 0.00 0.00 81 1010.8
20260506155005 61 230 4.3 7.8 0.00 0.00 0.00 80 1010.9
20260506154504 61 276 2.6 8.7 0.00 0.00 0.00 81 1010.9
20260506154005 61 215 1.7 8.7 0.00 0.00 0.00 81 1011.0
20260506153005 61 228 1.7 8.7 0.00 0.00 0.00 81 1011.0
20260506152504 61 221 2.6 7.8 0.00 0.00 0.00 81 1010.8
20260506152005 61 221 1.7 10.4 0.00 0.00 0.00 82 1010.8
20260506151505 61 221 3.5 10.4 0.00 0.00 0.00 81 1010.7
20260506151005 60 209 1.7 7.0 0.00 0.00 0.00 82 1010.7
20260506150505 60 209 3.5 7.8 0.00 0.00 0.00 81 1010.8
20260506150005 61 213 4.3 10.4 0.00 0.00 0.00 80 1010.8
20260506145504 61 241 1.7 7.0 0.00 0.00 0.00 81 1010.8
20260506145004 61 193 3.5 6.1 0.00 0.00 0.00 80 1010.8
20260506144505 61 212 4.3 10.4 0.00 0.00 0.00 80 1010.9
20260506144004 62 215 4.3 7.8 0.00 0.00 0.00 79 1011.0
20260506143504 62 218 3.5 6.1 0.00 0.00 0.00 79 1011.1
20260506142505 62 227 4.3 7.8 0.00 0.00 0.00 79 1011.0
20260506142004 62 231 5.2 13.0 0.00 0.00 0.00 80 1011.0
20260506141504 62 231 3.5 11.3 0.00 0.00 0.00 79 1010.9
20260506141005 62 202 5.2 14.8 0.00 0.00 0.00 79 1011.1
20260506140505 62 214 5.2 10.4 0.00 0.00 0.00 80 1011.1
20260506140004 62 237 2.6 10.4 0.00 0.00 0.00 80 1011.2
20260506135505 62 204 2.6 11.3 0.00 0.00 0.00 80 1011.1
20260506135004 61 216 2.6 10.4 0.00 0.00 0.00 80 1011.1
20260506134504 61 227 3.5 7.8 0.00 0.00 0.00 81 1011.0
20260506134004 61 231 4.3 10.4 0.00 0.00 0.00 81 1011.0
20260506133505 61 227 4.3 10.4 0.00 0.00 0.00 81 1010.8
20260506133004 60 227 2.6 12.2 0.00 0.00 0.00 82 1010.8
20260506132005 60 220 2.6 10.4 0.00 0.00 0.00 82 1010.8
20260506131504 60 233 4.3 7.8 0.00 0.00 0.00 81 1010.7
20260506130504 61 210 1.7 2.6 0.00 0.00 0.00 82 1010.9
20260506130005 61 215 2.6 5.2 0.00 0.00 0.00 81 1010.9
20260506125004 61 269 2.6 11.3 0.00 0.00 0.00 81 1011.0
20260506124504 61 194 2.6 11.3 0.00 0.00 0.00 82 1011.1
20260506123505 61 228 3.5 10.4 0.00 0.00 0.00 82 1011.2
20260506122505 60 186 1.7 7.8 0.00 0.00 0.00 83 1011.3
20260506122004 60 248 2.6 7.8 0.00 0.00 0.00 83 1011.3
20260506121504 60 231 2.6 7.8 0.00 0.00 0.00 84 1011.3
20260506121004 60 224 1.7 6.1 0.00 0.00 0.00 85 1011.2
20260506120505 59 224 1.7 6.1 0.00 0.00 0.00 85 1011.2
20260506115505 59 247 1.7 7.0 0.00 0.00 0.00 86 1011.1
20260506114505 59 201 2.6 7.0 0.00 0.00 0.00 86 1011.0
20260506113504 58 208 1.7 7.8 0.00 0.00 0.00 88 1011.1
20260506113005 58 220 1.7 4.3 0.00 0.00 0.00 88 1011.2
20260506112505 57 206 0.9 2.6 0.00 0.00 0.00 89 1011.2
20260506112005 57 210 2.6 5.2 0.00 0.00 0.00 89 1011.2
20260506111504 57 208 0.9 2.6 0.00 0.00 0.00 90 1011.3
20260506111005 56 220 1.7 4.3 0.00 0.00 0.00 91 1011.4
20260506110504 56 179 0.9 4.3 0.00 0.00 0.00 91 1011.2
20260506110005 56 208 1.7 2.6 0.00 0.00 0.00 91 1011.3
20260506105504 55 207 0.9 2.6 0.00 0.00 0.00 91 1011.1
20260506105005 55 187 0.9 2.6 0.00 0.00 0.00 91 1011.2
20260506104005 55 200 0.9 5.2 0.00 0.00 0.00 91 1011.3
20260506102004 54 214 0.0 1.7 0.00 0.00 0.00 91 1011.2
20260506101505 54 220 0.0 0.9 0.00 0.00 0.00 91 1011.2
20260506101004 54 220 0.0 1.7 0.00 0.00 0.00 91 1011.2
20260506100504 54 217 0.0 1.7 0.00 0.00 0.00 91 1011.2
20260506100004 54 217 0.9 1.7 0.00 0.00 0.00 90 1011.1
20260506095504 54 181 0.0 0.9 0.00 0.00 0.00 90 1011.2
20260506095004 54 181 0.0 0.9 0.00 0.00 0.00 90 1011.2
20260506094504 54 175 0.0 2.6 0.00 0.00 0.00 90 1011.1
20260506094005 54 198 0.0 1.7 0.00 0.00 0.00 90 1011.1
20260506093504 54 209 0.0 1.7 0.00 0.00 0.00 90 1011.1
20260506093004 54 40 0.0 0.9 0.00 0.00 0.00 89 1011.1
20260506092505 54 40 0.0 0.9 0.00 0.00 0.00 89 1011.2
20260506092005 54 40 0.0 0.9 0.00 0.00 0.00 90 1011.2
20260506091504 54 320 0.0 1.7 0.00 0.00 0.00 89 1011.2
20260506091005 54 213 0.0 0.9 0.00 0.00 0.00 89 1011.2
20260506090504 54 213 0.9 1.7 0.00 0.00 0.00 89 1011.2
20260506090005 55 237 0.9 1.7 0.00 0.00 0.00 89 1011.3
20260506085504 55 237 0.9 1.7 0.00 0.00 0.00 89 1011.4
20260506085004 55 222 1.7 5.2 0.00 0.00 0.00 89 1011.4
20260506084505 55 218 0.9 2.6 0.00 0.00 0.00 89 1011.3
20260506083505 55 200 0.9 2.6 0.00 0.00 0.00 88 1011.5
20260506081504 55 217 0.9 2.6 0.00 0.00 0.00 88 1011.5
20260506081005 55 171 1.7 2.6 0.00 0.00 0.00 88 1011.5
20260506080504 55 229 1.7 2.6 0.00 0.00 0.00 88 1011.5
20260506073504 56 195 0.9 2.6 0.00 0.00 0.00 87 1011.6
20260506073005 56 173 0.9 2.6 0.00 0.00 0.00 87 1011.6
20260506072005 56 173 0.9 2.6 0.00 0.00 0.00 86 1011.7
20260506071004 56 233 0.9 6.1 0.00 0.00 0.00 86 1011.7
20260506070505 56 225 1.7 7.0 0.00 0.00 0.00 86 1011.7
20260506062504 56 222 0.9 2.6 0.00 0.00 0.00 85 1011.6
20260506062004 56 214 0.9 2.6 0.00 0.00 0.00 85 1011.7
20260506051005 57 283 0.9 1.7 0.00 0.00 0.00 82 1012.0
20260506050505 58 261 1.7 5.2 0.00 0.00 0.00 82 1012.1
20260506045004 58 185 0.9 2.6 0.00 0.00 0.00 81 1012.0
20260506044505 58 206 0.9 2.6 0.00 0.00 0.00 80 1012.1
20260506044005 59 252 1.7 8.7 0.00 0.00 0.00 80 1012.1
20260506043505 59 222 1.7 8.7 0.00 0.00 0.00 80 1012.2
20260506041505 59 239 2.6 6.1 0.00 0.00 0.00 80 1012.1
20260506041004 59 221 3.5 8.7 0.00 0.00 0.00 80 1012.1
20260506040505 59 206 2.6 7.0 0.00 0.00 0.00 80 1012.2
20260506035504 59 211 2.6 8.7 0.00 0.00 0.00 80 1012.2
20260506035005 59 229 2.6 10.4 0.00 0.00 0.00 80 1012.2
20260506034004 59 238 1.7 7.0 0.00 0.00 0.00 79 1012.1
20260506033504 60 226 2.6 6.1 0.00 0.00 0.00 79 1012.1
20260506032504 60 205 4.3 11.3 0.00 0.00 0.00 78 1012.0
20260506032004 60 214 2.6 13.9 0.00 0.00 0.00 78 1012.0
20260506031505 60 186 2.6 8.7 0.00 0.00 0.00 78 1012.0
20260506031004 60 246 4.3 11.3 0.00 0.00 0.00 78 1012.2
20260506030004 60 218 4.3 8.7 0.00 0.00 0.00 77 1012.1
20260506025505 60 255 2.6 10.4 0.00 0.00 0.00 76 1012.0
20260506025004 60 236 3.5 10.4 0.00 0.00 0.00 76 1012.1
20260506024504 60 222 2.6 10.4 0.00 0.00 0.00 75 1012.0
20260506024004 60 240 4.3 10.4 0.00 0.00 0.00 74 1012.2
20260506023504 60 228 4.3 12.2 0.00 0.00 0.00 74 1012.1
20260506023004 60 232 5.2 10.4 0.00 0.00 0.00 74 1012.1
20260506022504 60 231 5.2 15.6 0.00 0.00 0.00 74 1012.1
20260506021004 61 250 4.3 11.3 0.00 0.00 0.00 73 1011.9
20260506020504 61 222 3.5 13.0 0.00 0.00 0.00 73 1011.7
20260506020004 61 205 2.6 13.0 0.00 0.00 0.00 73 1011.6
20260506015504 61 227 4.3 12.2 0.00 0.00 0.00 72 1011.6
20260506015005 61 239 4.3 11.3 0.00 0.00 0.00 72 1011.6
20260506014504 61 219 5.2 13.0 0.00 0.00 0.00 72 1011.6
20260506014004 61 232 5.2 10.4 0.00 0.00 0.00 72 1011.5
20260506013504 61 235 3.5 11.3 0.00 0.00 0.00 73 1011.5
20260506013004 61 230 6.1 13.0 0.00 0.00 0.00 73 1011.4
20260506012505 61 237 2.6 6.1 0.00 0.00 0.00 73 1011.5
20260506012004 61 260 4.3 8.7 0.00 0.00 0.00 73 1011.4
20260506011005 61 201 4.3 6.1 0.00 0.00 0.00 73 1011.4
20260506010504 61 241 2.6 8.7 0.00 0.00 0.00 73 1011.4
20260506010004 61 224 2.6 7.8 0.00 0.00 0.00 73 1011.3
20260506005004 61 275 2.6 7.0 0.00 0.00 0.00 72 1011.1
20260506004004 61 268 4.3 11.3 0.00 0.00 0.00 71 1011.0
20260506003504 62 238 2.6 14.8 0.00 0.00 0.00 71 1010.9
20260506003005 62 234 7.8 14.8 0.00 0.00 0.00 71 1010.9
20260506002005 62 233 4.3 10.4 0.00 0.00 0.00 70 1010.5
20260506000504 62 226 5.2 13.0 0.00 0.00 0.00 70 1010.3
20260506000004 62 219 5.2 17.4 0.00 0.00 0.00 70 1010.0
20260505234506 62 214 4.3 13.0 0.00 0.00 0.00 70 1010.1
20260505234004 62 174 2.6 5.2 0.00 0.00 0.00 69 1010.0
20260505233504 62 208 4.3 11.3 0.00 0.00 0.00 68 1010.0
20260505233004 63 237 5.2 20.0 0.00 0.00 0.00 67 1010.0
20260505232004 64 216 2.6 10.4 0.00 0.00 0.00 66 1009.9
20260505231505 64 226 7.8 17.4 0.00 0.00 0.00 65 1009.8
20260505231003 64 198 4.3 8.7 0.00 0.00 0.00 65 1009.7
20260505230505 65 240 5.2 20.9 0.00 0.00 0.00 65 1009.6
20260505230004 65 180 2.6 11.3 0.00 0.00 0.00 64 1009.4
20260505225505 65 223 4.3 12.2 0.00 0.00 0.00 65 1009.6
20260505224504 65 79 4.3 7.8 0.00 0.00 0.00 66 1009.9
20260505224004 65 253 2.6 10.4 0.00 0.00 0.00 66 1010.0
20260505223504 65 246 2.6 7.8 0.00 0.00 0.00 66 1009.9
20260505223004 65 177 0.9 2.6 0.00 0.00 0.00 67 1009.8
20260505222504 65 190 2.6 8.7 0.00 0.00 0.00 65 1009.9
20260505222004 65 203 1.7 2.6 0.00 0.00 0.00 66 1009.9
20260505221504 65 220 3.5 7.0 0.00 0.00 0.00 66 1009.9
20260505221004 65 177 2.6 10.4 0.00 0.00 0.00 66 1009.8
20260505220504 65 232 2.6 7.0 0.00 0.00 0.00 66 1009.8
20260505220004 66 206 3.5 7.0 0.00 0.00 0.00 65 1009.8
20260505215504 66 212 2.6 7.8 0.00 0.00 0.00 65 1009.7
20260505215004 66 202 2.6 7.0 0.00 0.00 0.00 65 1009.7
20260505214504 66 219 2.6 7.8 0.00 0.00 0.00 64 1009.6
20260505214005 67 229 3.5 11.3 0.00 0.00 0.00 65 1009.6
20260505213504 67 206 1.7 6.1 0.00 0.00 0.00 65 1009.5
20260505212505 66 238 2.6 10.4 0.00 0.00 0.00 66 1009.5
20260505212004 66 208 2.6 6.1 0.00 0.00 0.00 66 1009.7
20260505211504 66 144 2.6 8.7 0.00 0.00 0.00 65 1009.7
20260505211004 66 186 1.7 4.3 0.00 0.00 0.00 66 1009.7
20260505210504 66 211 1.7 5.2 0.00 0.00 0.00 65 1009.7
20260505210004 67 229 1.7 5.2 0.00 0.00 0.00 66 1009.7
20260505205004 66 190 2.6 7.8 0.00 0.00 0.00 65 1009.4
20260505204503 67 235 4.3 8.7 0.00 0.00 0.00 64 1009.5
20260505204004 67 215 3.5 12.2 0.00 0.00 0.00 63 1009.5
20260505203505 68 227 4.3 11.3 0.00 0.00 0.00 64 1009.5
20260505202504 68 211 2.6 5.2 0.00 0.00 0.00 62 1009.7